sensor_id;sensor_type;location;lat;lon;timestamp;noise_LAeq;noise_LA_min;noise_LA_max;noise_LA01;noise_LA95
78074;Laerm;67283;50.960;13.856;2023-09-19T00:01:32;30.45;29.66;35.55;;
78074;Laerm;67283;50.960;13.856;2023-09-19T00:03:58;30.54;29.70;40.00;;
78074;Laerm;67283;50.960;13.856;2023-09-19T00:06:23;30.37;29.63;36.45;;
78074;Laerm;67283;50.960;13.856;2023-09-19T00:08:51;30.36;29.58;35.39;;
78074;Laerm;67283;50.960;13.856;2023-09-19T00:11:16;30.37;29.50;36.97;;
78074;Laerm;67283;50.960;13.856;2023-09-19T00:13:42;30.37;29.43;35.36;;
78074;Laerm;67283;50.960;13.856;2023-09-19T00:16:11;30.42;29.61;35.09;;
78074;Laerm;67283;50.960;13.856;2023-09-19T00:18:37;30.42;29.65;40.65;;
78074;Laerm;67283;50.960;13.856;2023-09-19T00:21:03;31.75;29.76;55.85;;
78074;Laerm;67283;50.960;13.856;2023-09-19T00:23:30;31.42;29.81;53.58;;
78074;Laerm;67283;50.960;13.856;2023-09-19T00:25:59;52.05;29.82;67.55;;
78074;Laerm;67283;50.960;13.856;2023-09-19T00:28:25;30.72;29.83;36.53;;
78074;Laerm;67283;50.960;13.856;2023-09-19T00:30:51;30.74;29.62;36.17;;
78074;Laerm;67283;50.960;13.856;2023-09-19T00:33:16;31.12;29.62;37.30;;
78074;Laerm;67283;50.960;13.856;2023-09-19T00:35:51;31.27;29.72;53.68;;
78074;Laerm;67283;50.960;13.856;2023-09-19T00:38:17;30.75;29.56;36.48;;
78074;Laerm;67283;50.960;13.856;2023-09-19T00:40:46;30.67;29.68;38.07;;
78074;Laerm;67283;50.960;13.856;2023-09-19T00:43:11;30.72;29.71;43.22;;
78074;Laerm;67283;50.960;13.856;2023-09-19T00:45:37;30.59;29.73;36.81;;
78074;Laerm;67283;50.960;13.856;2023-09-19T00:48:03;30.62;29.74;40.70;;
78074;Laerm;67283;50.960;13.856;2023-09-19T00:50:37;30.47;29.71;35.65;;
78074;Laerm;67283;50.960;13.856;2023-09-19T00:53:05;31.78;29.75;56.04;;
78074;Laerm;67283;50.960;13.856;2023-09-19T00:55:33;30.55;29.76;36.47;;
78074;Laerm;67283;50.960;13.856;2023-09-19T00:57:59;30.61;29.66;36.01;;
78074;Laerm;67283;50.960;13.856;2023-09-19T01:00:25;30.73;29.83;36.42;;
78074;Laerm;67283;50.960;13.856;2023-09-19T01:02:51;53.18;30.07;70.81;;
78074;Laerm;67283;50.960;13.856;2023-09-19T01:05:16;31.19;30.06;38.05;;
78074;Laerm;67283;50.960;13.856;2023-09-19T01:07:42;46.84;29.96;62.94;;
78074;Laerm;67283;50.960;13.856;2023-09-19T01:10:11;30.79;29.93;36.19;;
78074;Laerm;67283;50.960;13.856;2023-09-19T01:15:08;35.73;29.95;59.77;;
78074;Laerm;67283;50.960;13.856;2023-09-19T01:17:52;30.85;29.93;35.48;;
78074;Laerm;67283;50.960;13.856;2023-09-19T01:20:30;31.14;30.05;37.07;;
78074;Laerm;67283;50.960;13.856;2023-09-19T01:30:51;31.41;30.03;36.53;;
78074;Laerm;67283;50.960;13.856;2023-09-19T01:33:19;31.10;30.15;36.61;;
78074;Laerm;67283;50.960;13.856;2023-09-19T01:35:44;46.59;30.33;61.24;;
78074;Laerm;67283;50.960;13.856;2023-09-19T01:38:10;55.02;30.68;71.16;;
78074;Laerm;67283;50.960;13.856;2023-09-19T01:40:40;52.02;30.64;69.29;;
78074;Laerm;67283;50.960;13.856;2023-09-19T01:43:15;46.16;30.43;64.04;;
78074;Laerm;67283;50.960;13.856;2023-09-19T01:45:57;32.98;30.67;42.26;;
78074;Laerm;67283;50.960;13.856;2023-09-19T01:51:12;53.80;30.74;72.13;;
78074;Laerm;67283;50.960;13.856;2023-09-19T01:56:05;48.53;30.39;64.26;;
78074;Laerm;67283;50.960;13.856;2023-09-19T01:58:39;31.10;30.38;35.89;;
78074;Laerm;67283;50.960;13.856;2023-09-19T02:01:08;31.30;30.49;36.22;;
78074;Laerm;67283;50.960;13.856;2023-09-19T02:03:36;31.28;30.51;35.95;;
78074;Laerm;67283;50.960;13.856;2023-09-19T02:06:02;32.18;30.53;39.18;;
78074;Laerm;67283;50.960;13.856;2023-09-19T02:08:28;32.31;30.68;41.85;;
78074;Laerm;67283;50.960;13.856;2023-09-19T02:10:56;31.16;30.45;36.43;;
78074;Laerm;67283;50.960;13.856;2023-09-19T02:13:22;32.19;30.22;56.04;;
78074;Laerm;67283;50.960;13.856;2023-09-19T02:15:52;35.00;30.47;44.73;;
78074;Laerm;67283;50.960;13.856;2023-09-19T02:18:17;33.98;30.35;44.39;;
78074;Laerm;67283;50.960;13.856;2023-09-19T02:20:43;60.14;30.27;80.06;;
78074;Laerm;67283;50.960;13.856;2023-09-19T02:23:09;55.92;30.41;72.53;;
78074;Laerm;67283;50.960;13.856;2023-09-19T02:25:35;33.45;30.66;47.17;;
78074;Laerm;67283;50.960;13.856;2023-09-19T02:28:00;31.17;30.33;36.63;;
78074;Laerm;67283;50.960;13.856;2023-09-19T02:30:28;54.17;30.22;69.14;;
78074;Laerm;67283;50.960;13.856;2023-09-19T02:32:54;31.10;30.10;40.70;;
78074;Laerm;67283;50.960;13.856;2023-09-19T02:35:19;59.47;30.58;71.98;;
78074;Laerm;67283;50.960;13.856;2023-09-19T02:37:45;54.69;30.34;67.21;;
78074;Laerm;67283;50.960;13.856;2023-09-19T02:40:11;52.76;30.17;69.87;;
78074;Laerm;67283;50.960;13.856;2023-09-19T02:42:47;54.27;30.46;68.98;;
78074;Laerm;67283;50.960;13.856;2023-09-19T02:45:17;52.83;30.50;69.76;;
78074;Laerm;67283;50.960;13.856;2023-09-19T02:47:43;60.57;31.19;81.75;;
78074;Laerm;67283;50.960;13.856;2023-09-19T02:50:09;54.90;30.88;71.08;;
78074;Laerm;67283;50.960;13.856;2023-09-19T02:52:36;60.49;31.23;73.68;;
78074;Laerm;67283;50.960;13.856;2023-09-19T02:55:01;45.79;30.75;64.25;;
78074;Laerm;67283;50.960;13.856;2023-09-19T02:57:28;47.01;31.59;64.42;;
78074;Laerm;67283;50.960;13.856;2023-09-19T02:59:54;54.04;31.17;69.01;;
78074;Laerm;67283;50.960;13.856;2023-09-19T03:02:20;55.12;31.18;68.52;;
78074;Laerm;67283;50.960;13.856;2023-09-19T03:04:45;51.07;31.41;67.92;;
78074;Laerm;67283;50.960;13.856;2023-09-19T03:07:12;54.61;31.47;69.79;;
78074;Laerm;67283;50.960;13.856;2023-09-19T03:09:37;62.52;31.73;78.19;;
78074;Laerm;67283;50.960;13.856;2023-09-19T03:12:03;57.41;31.86;73.44;;
78074;Laerm;67283;50.960;13.856;2023-09-19T03:14:29;57.34;32.53;69.95;;
78074;Laerm;67283;50.960;13.856;2023-09-19T03:17:00;58.29;32.36;71.41;;
78074;Laerm;67283;50.960;13.856;2023-09-19T03:19:25;57.43;32.79;75.73;;
78074;Laerm;67283;50.960;13.856;2023-09-19T03:21:51;59.91;33.13;72.43;;
78074;Laerm;67283;50.960;13.856;2023-09-19T03:24:17;59.51;34.13;71.13;;
78074;Laerm;67283;50.960;13.856;2023-09-19T03:26:42;61.02;33.84;72.18;;
78074;Laerm;67283;50.960;13.856;2023-09-19T03:29:07;59.67;35.65;70.11;;
78074;Laerm;67283;50.960;13.856;2023-09-19T03:31:35;64.43;34.10;76.40;;
78074;Laerm;67283;50.960;13.856;2023-09-19T03:34:01;56.67;33.17;69.06;;
78074;Laerm;67283;50.960;13.856;2023-09-19T03:36:28;62.69;36.10;79.85;;
78074;Laerm;67283;50.960;13.856;2023-09-19T03:38:54;58.45;33.18;70.45;;
78074;Laerm;67283;50.960;13.856;2023-09-19T03:41:19;59.47;35.27;70.87;;
78074;Laerm;67283;50.960;13.856;2023-09-19T03:43:45;60.55;35.54;71.04;;
78074;Laerm;67283;50.960;13.856;2023-09-19T03:46:10;58.85;32.70;72.43;;
78074;Laerm;67283;50.960;13.856;2023-09-19T03:48:37;59.15;33.11;71.38;;
78074;Laerm;67283;50.960;13.856;2023-09-19T03:51:03;60.91;37.26;71.51;;
78074;Laerm;67283;50.960;13.856;2023-09-19T03:53:28;60.14;34.59;71.26;;
78074;Laerm;67283;50.960;13.856;2023-09-19T03:55:54;55.60;31.71;71.02;;
78074;Laerm;67283;50.960;13.856;2023-09-19T03:58:20;57.88;34.48;70.24;;
78074;Laerm;67283;50.960;13.856;2023-09-19T04:00:45;61.51;40.08;71.86;;
78074;Laerm;67283;50.960;13.856;2023-09-19T04:03:11;64.41;32.76;78.74;;
78074;Laerm;67283;50.960;13.856;2023-09-19T04:05:44;62.26;32.94;75.38;;
78074;Laerm;67283;50.960;13.856;2023-09-19T04:08:09;63.60;36.76;76.71;;
78074;Laerm;67283;50.960;13.856;2023-09-19T04:10:36;62.13;35.85;71.46;;
78074;Laerm;67283;50.960;13.856;2023-09-19T04:13:02;57.84;33.36;69.30;;
78074;Laerm;67283;50.960;13.856;2023-09-19T04:15:27;61.07;38.72;72.25;;
78074;Laerm;67283;50.960;13.856;2023-09-19T04:17:53;61.79;35.69;71.65;;
78074;Laerm;67283;50.960;13.856;2023-09-19T04:20:18;61.35;33.87;70.41;;
78074;Laerm;67283;50.960;13.856;2023-09-19T04:22:50;62.20;43.67;70.69;;
78074;Laerm;67283;50.960;13.856;2023-09-19T04:25:15;64.22;44.04;72.83;;
78074;Laerm;67283;50.960;13.856;2023-09-19T04:27:41;61.13;39.27;72.69;;
78074;Laerm;67283;50.960;13.856;2023-09-19T04:30:07;62.74;46.30;72.60;;
78074;Laerm;67283;50.960;13.856;2023-09-19T04:32:37;61.80;35.88;75.37;;
78074;Laerm;67283;50.960;13.856;2023-09-19T04:35:05;62.25;36.65;72.16;;
78074;Laerm;67283;50.960;13.856;2023-09-19T04:37:33;62.43;37.09;75.01;;
78074;Laerm;67283;50.960;13.856;2023-09-19T04:39:58;61.32;34.77;72.33;;
78074;Laerm;67283;50.960;13.856;2023-09-19T04:42:23;63.19;34.75;72.38;;
78074;Laerm;67283;50.960;13.856;2023-09-19T04:44:50;63.23;39.45;77.07;;
78074;Laerm;67283;50.960;13.856;2023-09-19T04:47:19;61.91;37.10;74.11;;
78074;Laerm;67283;50.960;13.856;2023-09-19T04:49:44;60.26;32.84;71.87;;
78074;Laerm;67283;50.960;13.856;2023-09-19T04:52:09;61.62;34.41;75.26;;
78074;Laerm;67283;50.960;13.856;2023-09-19T04:54:35;62.16;36.95;72.66;;
78074;Laerm;67283;50.960;13.856;2023-09-19T04:57:00;63.11;38.08;75.41;;
78074;Laerm;67283;50.960;13.856;2023-09-19T04:59:26;61.05;38.52;71.04;;
78074;Laerm;67283;50.960;13.856;2023-09-19T05:01:52;56.55;31.89;69.66;;
78074;Laerm;67283;50.960;13.856;2023-09-19T05:04:17;62.83;32.32;77.56;;
78074;Laerm;67283;50.960;13.856;2023-09-19T05:06:43;61.49;34.08;73.09;;
78074;Laerm;67283;50.960;13.856;2023-09-19T05:09:08;65.39;36.48;77.12;;
78074;Laerm;67283;50.960;13.856;2023-09-19T05:11:33;61.81;40.46;70.40;;
78074;Laerm;67283;50.960;13.856;2023-09-19T05:13:59;62.54;45.84;72.20;;
78074;Laerm;67283;50.960;13.856;2023-09-19T05:16:29;63.32;33.33;79.15;;
78074;Laerm;67283;50.960;13.856;2023-09-19T05:18:55;62.99;35.21;73.58;;
78074;Laerm;67283;50.960;13.856;2023-09-19T05:21:20;61.50;34.55;73.79;;
78074;Laerm;67283;50.960;13.856;2023-09-19T05:23:45;61.90;34.49;75.34;;
78074;Laerm;67283;50.960;13.856;2023-09-19T05:26:11;61.89;33.00;73.73;;
78074;Laerm;67283;50.960;13.856;2023-09-19T05:28:37;63.52;34.56;76.76;;
78074;Laerm;67283;50.960;13.856;2023-09-19T05:31:03;60.73;41.02;73.98;;
78074;Laerm;67283;50.960;13.856;2023-09-19T05:33:28;61.09;38.50;71.76;;
78074;Laerm;67283;50.960;13.856;2023-09-19T05:35:56;63.09;46.06;77.93;;
78074;Laerm;67283;50.960;13.856;2023-09-19T05:38:22;61.47;34.46;73.63;;
78074;Laerm;67283;50.960;13.856;2023-09-19T05:40:47;63.08;39.61;73.70;;
78074;Laerm;67283;50.960;13.856;2023-09-19T05:43:13;64.81;35.12;77.64;;
78074;Laerm;67283;50.960;13.856;2023-09-19T05:45:39;58.47;33.30;69.57;;
78074;Laerm;67283;50.960;13.856;2023-09-19T05:48:09;60.97;33.14;70.70;;
78074;Laerm;67283;50.960;13.856;2023-09-19T05:50:34;58.11;35.19;71.41;;
78074;Laerm;67283;50.960;13.856;2023-09-19T05:53:00;63.59;32.06;78.38;;
78074;Laerm;67283;50.960;13.856;2023-09-19T05:55:25;59.00;31.35;71.36;;
78074;Laerm;67283;50.960;13.856;2023-09-19T05:57:51;59.91;34.22;71.36;;
78074;Laerm;67283;50.960;13.856;2023-09-19T06:00:17;60.37;33.86;72.40;;
78074;Laerm;67283;50.960;13.856;2023-09-19T06:02:44;61.02;33.93;72.36;;
78074;Laerm;67283;50.960;13.856;2023-09-19T06:05:10;62.63;34.47;73.15;;
78074;Laerm;67283;50.960;13.856;2023-09-19T06:07:36;59.93;39.13;75.76;;
78074;Laerm;67283;50.960;13.856;2023-09-19T06:10:05;59.63;34.56;73.29;;
78074;Laerm;67283;50.960;13.856;2023-09-19T06:12:31;51.06;35.39;64.24;;
78074;Laerm;67283;50.960;13.856;2023-09-19T06:14:58;58.47;34.66;72.65;;
78074;Laerm;67283;50.960;13.856;2023-09-19T06:17:24;58.54;38.54;69.66;;
78074;Laerm;67283;50.960;13.856;2023-09-19T06:19:49;58.42;34.36;68.75;;
78074;Laerm;67283;50.960;13.856;2023-09-19T06:22:18;60.21;35.44;73.23;;
78074;Laerm;67283;50.960;13.856;2023-09-19T06:24:44;64.54;37.52;77.94;;
78074;Laerm;67283;50.960;13.856;2023-09-19T06:27:09;62.16;46.96;70.86;;
78074;Laerm;67283;50.960;13.856;2023-09-19T06:29:35;54.15;31.36;69.33;;
78074;Laerm;67283;50.960;13.856;2023-09-19T06:32:03;58.18;31.87;70.10;;
78074;Laerm;67283;50.960;13.856;2023-09-19T06:34:31;62.19;35.37;73.59;;
78074;Laerm;67283;50.960;13.856;2023-09-19T06:36:58;57.35;33.23;70.36;;
78074;Laerm;67283;50.960;13.856;2023-09-19T06:39:23;52.29;32.71;67.91;;
78074;Laerm;67283;50.960;13.856;2023-09-19T06:41:51;56.41;32.80;70.54;;
78074;Laerm;67283;50.960;13.856;2023-09-19T06:44:18;57.46;34.12;69.49;;
78074;Laerm;67283;50.960;13.856;2023-09-19T06:46:44;60.58;38.79;70.55;;
78074;Laerm;67283;50.960;13.856;2023-09-19T06:49:11;58.81;31.70;70.39;;
78074;Laerm;67283;50.960;13.856;2023-09-19T06:51:38;65.25;41.33;79.74;;
78074;Laerm;67283;50.960;13.856;2023-09-19T06:54:03;57.40;31.28;68.02;;
78074;Laerm;67283;50.960;13.856;2023-09-19T06:56:30;61.77;31.74;80.04;;
78074;Laerm;67283;50.960;13.856;2023-09-19T06:58:57;60.68;32.80;71.35;;
78074;Laerm;67283;50.960;13.856;2023-09-19T07:01:22;36.63;31.46;58.31;;
78074;Laerm;67283;50.960;13.856;2023-09-19T07:03:49;52.60;31.16;68.14;;
78074;Laerm;67283;50.960;13.856;2023-09-19T07:06:14;59.47;30.86;76.59;;
78074;Laerm;67283;50.960;13.856;2023-09-19T07:08:39;58.65;34.07;69.87;;
78074;Laerm;67283;50.960;13.856;2023-09-19T07:11:05;58.02;35.03;70.64;;
78074;Laerm;67283;50.960;13.856;2023-09-19T07:13:31;60.26;32.39;72.55;;
78074;Laerm;67283;50.960;13.856;2023-09-19T07:15:58;56.41;31.30;71.16;;
78074;Laerm;67283;50.960;13.856;2023-09-19T07:18:23;60.74;31.63;76.18;;
78074;Laerm;67283;50.960;13.856;2023-09-19T07:20:49;53.08;31.05;65.60;;
78074;Laerm;67283;50.960;13.856;2023-09-19T07:23:15;60.71;36.26;72.35;;
78074;Laerm;67283;50.960;13.856;2023-09-19T07:25:40;64.56;40.60;76.52;;
78074;Laerm;67283;50.960;13.856;2023-09-19T07:28:06;60.85;34.41;72.81;;
78074;Laerm;67283;50.960;13.856;2023-09-19T07:30:31;61.97;32.51;75.81;;
78074;Laerm;67283;50.960;13.856;2023-09-19T07:32:57;59.78;33.99;72.20;;
78074;Laerm;67283;50.960;13.856;2023-09-19T07:35:22;57.85;32.86;70.31;;
78074;Laerm;67283;50.960;13.856;2023-09-19T07:37:48;62.92;33.51;78.75;;
78074;Laerm;67283;50.960;13.856;2023-09-19T07:40:21;60.00;35.55;71.56;;
78074;Laerm;67283;50.960;13.856;2023-09-19T07:42:46;55.85;32.45;68.35;;
78074;Laerm;67283;50.960;13.856;2023-09-19T07:45:12;56.64;30.43;67.79;;
78074;Laerm;67283;50.960;13.856;2023-09-19T07:47:47;60.68;31.12;72.14;;
78074;Laerm;67283;50.960;13.856;2023-09-19T07:50:16;65.91;45.15;78.78;;
78074;Laerm;67283;50.960;13.856;2023-09-19T07:52:43;58.47;37.84;70.42;;
78074;Laerm;67283;50.960;13.856;2023-09-19T07:55:09;56.75;34.43;69.85;;
78074;Laerm;67283;50.960;13.856;2023-09-19T07:57:36;60.58;37.44;74.58;;
78074;Laerm;67283;50.960;13.856;2023-09-19T08:00:02;59.81;38.86;74.33;;
78074;Laerm;67283;50.960;13.856;2023-09-19T08:02:30;45.92;31.63;63.48;;
78074;Laerm;67283;50.960;13.856;2023-09-19T08:04:58;63.88;40.14;76.26;;
78074;Laerm;67283;50.960;13.856;2023-09-19T08:07:25;66.86;39.49;81.70;;
78074;Laerm;67283;50.960;13.856;2023-09-19T08:09:51;63.76;33.80;80.16;;
78074;Laerm;67283;50.960;13.856;2023-09-19T08:12:16;55.71;32.42;71.16;;
78074;Laerm;67283;50.960;13.856;2023-09-19T08:14:42;58.55;31.80;70.24;;
78074;Laerm;67283;50.960;13.856;2023-09-19T08:17:07;61.40;32.06;73.98;;
78074;Laerm;67283;50.960;13.856;2023-09-19T08:19:33;58.91;31.31;75.55;;
78074;Laerm;67283;50.960;13.856;2023-09-19T08:21:59;57.12;32.35;69.37;;
78074;Laerm;67283;50.960;13.856;2023-09-19T08:24:27;59.91;37.21;76.66;;
78074;Laerm;67283;50.960;13.856;2023-09-19T08:26:54;51.84;32.27;69.48;;
78074;Laerm;67283;50.960;13.856;2023-09-19T08:29:19;63.37;35.00;81.00;;
78074;Laerm;67283;50.960;13.856;2023-09-19T08:31:45;61.27;32.75;73.20;;
78074;Laerm;67283;50.960;13.856;2023-09-19T08:34:12;63.13;33.09;78.46;;
78074;Laerm;67283;50.960;13.856;2023-09-19T08:36:37;57.75;33.91;67.91;;
78074;Laerm;67283;50.960;13.856;2023-09-19T08:39:04;52.09;31.78;67.16;;
78074;Laerm;67283;50.960;13.856;2023-09-19T08:41:29;60.90;34.05;74.04;;
78074;Laerm;67283;50.960;13.856;2023-09-19T08:43:58;54.61;31.89;75.25;;
78074;Laerm;67283;50.960;13.856;2023-09-19T08:46:26;62.40;32.02;79.11;;
78074;Laerm;67283;50.960;13.856;2023-09-19T08:48:56;59.69;35.26;70.75;;
78074;Laerm;67283;50.960;13.856;2023-09-19T08:51:26;63.87;40.21;75.54;;
78074;Laerm;67283;50.960;13.856;2023-09-19T08:54:06;57.84;33.05;77.71;;
78074;Laerm;67283;50.960;13.856;2023-09-19T08:56:32;53.86;31.99;67.70;;
78074;Laerm;67283;50.960;13.856;2023-09-19T08:59:04;60.57;39.35;72.24;;
78074;Laerm;67283;50.960;13.856;2023-09-19T09:01:33;63.43;34.93;77.26;;
78074;Laerm;67283;50.960;13.856;2023-09-19T09:03:58;62.14;33.08;76.41;;
78074;Laerm;67283;50.960;13.856;2023-09-19T09:06:24;61.94;32.48;72.99;;
78074;Laerm;67283;50.960;13.856;2023-09-19T09:08:50;59.61;33.36;70.07;;
78074;Laerm;67283;50.960;13.856;2023-09-19T09:11:16;58.83;35.55;70.70;;
78074;Laerm;67283;50.960;13.856;2023-09-19T09:13:45;63.62;33.59;80.13;;
78074;Laerm;67283;50.960;13.856;2023-09-19T09:16:11;57.40;31.35;68.45;;
78074;Laerm;67283;50.960;13.856;2023-09-19T09:18:37;53.61;31.78;69.20;;
78074;Laerm;67283;50.960;13.856;2023-09-19T09:21:03;61.28;31.34;76.05;;
78074;Laerm;67283;50.960;13.856;2023-09-19T09:23:30;63.53;32.20;76.41;;
78074;Laerm;67283;50.960;13.856;2023-09-19T09:25:57;60.75;33.84;73.47;;
78074;Laerm;67283;50.960;13.856;2023-09-19T09:28:27;57.38;32.38;69.36;;
78074;Laerm;67283;50.960;13.856;2023-09-19T09:30:53;57.70;32.04;68.67;;
78074;Laerm;67283;50.960;13.856;2023-09-19T09:33:19;60.86;31.42;72.55;;
78074;Laerm;67283;50.960;13.856;2023-09-19T09:35:52;57.40;32.11;68.64;;
78074;Laerm;67283;50.960;13.856;2023-09-19T09:38:21;55.37;31.20;71.39;;
78074;Laerm;67283;50.960;13.856;2023-09-19T09:40:49;57.75;31.61;73.53;;
78074;Laerm;67283;50.960;13.856;2023-09-19T09:46:10;60.13;32.54;77.42;;
78074;Laerm;67283;50.960;13.856;2023-09-19T09:51:42;56.54;31.67;69.68;;
78074;Laerm;67283;50.960;13.856;2023-09-19T09:54:12;62.73;34.85;72.89;;
78074;Laerm;67283;50.960;13.856;2023-09-19T09:56:51;54.23;33.24;67.24;;
78074;Laerm;67283;50.960;13.856;2023-09-19T09:59:17;60.90;34.55;73.10;;
78074;Laerm;67283;50.960;13.856;2023-09-19T10:01:47;58.84;38.93;71.02;;
78074;Laerm;67283;50.960;13.856;2023-09-19T10:04:21;60.43;33.20;75.79;;
78074;Laerm;67283;50.960;13.856;2023-09-19T10:06:53;59.51;35.48;73.14;;
78074;Laerm;67283;50.960;13.856;2023-09-19T10:09:19;60.52;37.46;74.08;;
78074;Laerm;67283;50.960;13.856;2023-09-19T10:11:46;54.14;33.46;77.63;;
78074;Laerm;67283;50.960;13.856;2023-09-19T10:14:14;57.79;33.63;71.87;;
78074;Laerm;67283;50.960;13.856;2023-09-19T10:16:42;58.77;38.48;70.06;;
78074;Laerm;67283;50.960;13.856;2023-09-19T10:19:10;59.08;34.99;79.99;;
78074;Laerm;67283;50.960;13.856;2023-09-19T10:21:40;59.92;33.98;73.73;;
78074;Laerm;67283;50.960;13.856;2023-09-19T10:24:08;49.20;33.78;64.25;;
78074;Laerm;67283;50.960;13.856;2023-09-19T10:26:34;60.95;34.00;72.65;;
78074;Laerm;67283;50.960;13.856;2023-09-19T10:29:01;58.56;36.16;68.48;;
78074;Laerm;67283;50.960;13.856;2023-09-19T10:31:30;62.01;37.06;77.79;;
78074;Laerm;67283;50.960;13.856;2023-09-19T10:34:00;61.46;35.56;74.81;;
78074;Laerm;67283;50.960;13.856;2023-09-19T10:36:27;57.72;34.25;68.72;;
78074;Laerm;67283;50.960;13.856;2023-09-19T10:38:58;60.41;33.54;75.64;;
78074;Laerm;67283;50.960;13.856;2023-09-19T10:41:27;59.96;34.60;74.74;;
78074;Laerm;67283;50.960;13.856;2023-09-19T10:43:54;59.18;35.16;75.28;;
78074;Laerm;67283;50.960;13.856;2023-09-19T10:46:20;62.19;36.18;77.63;;
78074;Laerm;67283;50.960;13.856;2023-09-19T10:48:46;57.18;35.70;69.43;;
78074;Laerm;67283;50.960;13.856;2023-09-19T10:51:17;61.71;35.55;76.19;;
78074;Laerm;67283;50.960;13.856;2023-09-19T10:53:48;61.80;33.51;76.14;;
78074;Laerm;67283;50.960;13.856;2023-09-19T10:56:20;62.44;37.73;77.14;;
78074;Laerm;67283;50.960;13.856;2023-09-19T10:58:46;56.86;37.34;68.62;;
78074;Laerm;67283;50.960;13.856;2023-09-19T11:01:13;61.41;37.65;76.35;;
78074;Laerm;67283;50.960;13.856;2023-09-19T11:03:39;59.12;36.05;71.58;;
78074;Laerm;67283;50.960;13.856;2023-09-19T11:06:17;58.04;36.61;70.22;;
78074;Laerm;67283;50.960;13.856;2023-09-19T11:08:53;64.68;37.43;79.89;;
78074;Laerm;67283;50.960;13.856;2023-09-19T11:22:18;57.76;36.58;70.81;;
78074;Laerm;67283;50.960;13.856;2023-09-19T11:24:44;57.95;36.36;71.98;;
78074;Laerm;67283;50.960;13.856;2023-09-19T11:27:13;63.44;36.43;80.03;;
78074;Laerm;67283;50.960;13.856;2023-09-19T11:29:39;59.37;37.87;72.31;;
78074;Laerm;67283;50.960;13.856;2023-09-19T11:32:05;65.19;38.72;82.07;;
78074;Laerm;67283;50.960;13.856;2023-09-19T11:37:59;63.86;38.40;75.58;;
78074;Laerm;67283;50.960;13.856;2023-09-19T11:40:05;60.93;33.18;77.15;;
78074;Laerm;67283;50.960;13.856;2023-09-19T11:42:46;62.60;34.93;79.21;;
78074;Laerm;67283;50.960;13.856;2023-09-19T11:47:59;59.47;36.57;73.45;;
78074;Laerm;67283;50.960;13.856;2023-09-19T11:50:25;61.24;33.26;78.11;;
78074;Laerm;67283;50.960;13.856;2023-09-19T11:52:51;56.92;32.36;71.30;;
78074;Laerm;67283;50.960;13.856;2023-09-19T11:55:17;55.30;33.37;68.79;;
78074;Laerm;67283;50.960;13.856;2023-09-19T11:57:47;58.66;37.45;71.41;;
78074;Laerm;67283;50.960;13.856;2023-09-19T12:00:19;59.60;35.08;70.92;;
78074;Laerm;67283;50.960;13.856;2023-09-19T12:02:46;61.97;36.86;78.00;;
78074;Laerm;67283;50.960;13.856;2023-09-19T12:05:12;62.46;38.57;76.00;;
78074;Laerm;67283;50.960;13.856;2023-09-19T12:07:43;58.29;36.31;70.68;;
78074;Laerm;67283;50.960;13.856;2023-09-19T12:10:11;59.58;36.09;73.87;;
78074;Laerm;67283;50.960;13.856;2023-09-19T12:12:39;62.44;36.69;78.76;;
78074;Laerm;67283;50.960;13.856;2023-09-19T12:15:05;62.30;37.83;74.74;;
78074;Laerm;67283;50.960;13.856;2023-09-19T12:17:37;59.74;35.14;71.72;;
78074;Laerm;67283;50.960;13.856;2023-09-19T12:20:04;58.42;36.34;69.06;;
78074;Laerm;67283;50.960;13.856;2023-09-19T12:22:44;60.82;37.06;76.10;;
78074;Laerm;67283;50.960;13.856;2023-09-19T12:25:10;58.30;35.16;70.84;;
78074;Laerm;67283;50.960;13.856;2023-09-19T12:27:46;59.19;37.46;70.70;;
78074;Laerm;67283;50.960;13.856;2023-09-19T12:30:12;59.49;41.26;72.93;;
78074;Laerm;67283;50.960;13.856;2023-09-19T12:32:43;61.13;35.67;76.11;;
78074;Laerm;67283;50.960;13.856;2023-09-19T12:35:09;62.55;35.99;75.86;;
78074;Laerm;67283;50.960;13.856;2023-09-19T12:37:42;67.07;35.41;89.06;;
78074;Laerm;67283;50.960;13.856;2023-09-19T12:40:08;57.26;38.68;69.76;;
78074;Laerm;67283;50.960;13.856;2023-09-19T12:42:47;59.77;37.50;70.90;;
78074;Laerm;67283;50.960;13.856;2023-09-19T12:45:12;58.30;35.63;73.49;;
78074;Laerm;67283;50.960;13.856;2023-09-19T12:47:40;61.97;37.72;76.67;;
78074;Laerm;67283;50.960;13.856;2023-09-19T12:50:12;58.01;35.99;68.31;;
78074;Laerm;67283;50.960;13.856;2023-09-19T12:52:50;59.31;36.89;69.92;;
78074;Laerm;67283;50.960;13.856;2023-09-19T12:55:19;60.86;38.06;71.44;;
78074;Laerm;67283;50.960;13.856;2023-09-19T12:57:54;60.49;36.92;71.34;;
78074;Laerm;67283;50.960;13.856;2023-09-19T13:00:20;60.40;35.77;70.22;;
78074;Laerm;67283;50.960;13.856;2023-09-19T13:08:17;59.79;33.46;71.22;;
78074;Laerm;67283;50.960;13.856;2023-09-19T13:11:02;59.98;35.79;70.26;;
78074;Laerm;67283;50.960;13.856;2023-09-19T13:13:29;63.06;36.61;75.01;;
78074;Laerm;67283;50.960;13.856;2023-09-19T13:15:55;61.02;38.16;72.03;;
78074;Laerm;67283;50.960;13.856;2023-09-19T13:18:22;64.61;42.18;78.97;;
78074;Laerm;67283;50.960;13.856;2023-09-19T13:21:06;64.84;45.45;79.30;;
78074;Laerm;67283;50.960;13.856;2023-09-19T13:23:37;59.92;38.51;70.58;;
78074;Laerm;67283;50.960;13.856;2023-09-19T13:26:03;61.15;35.16;72.90;;
78074;Laerm;67283;50.960;13.856;2023-09-19T13:28:30;61.83;41.88;77.27;;
78074;Laerm;67283;50.960;13.856;2023-09-19T13:30:56;63.51;41.11;74.17;;
78074;Laerm;67283;50.960;13.856;2023-09-19T13:33:22;62.72;39.21;72.60;;
78074;Laerm;67283;50.960;13.856;2023-09-19T13:35:47;56.72;34.28;72.35;;
78074;Laerm;67283;50.960;13.856;2023-09-19T13:38:13;58.97;34.23;70.90;;
78074;Laerm;67283;50.960;13.856;2023-09-19T13:40:39;63.43;36.61;78.99;;
78074;Laerm;67283;50.960;13.856;2023-09-19T13:43:06;61.19;33.80;71.55;;
78074;Laerm;67283;50.960;13.856;2023-09-19T13:45:32;59.00;35.79;69.19;;
78074;Laerm;67283;50.960;13.856;2023-09-19T13:47:57;62.91;43.00;75.74;;
78074;Laerm;67283;50.960;13.856;2023-09-19T13:50:24;62.17;42.55;72.44;;
78074;Laerm;67283;50.960;13.856;2023-09-19T13:52:50;61.87;36.26;74.75;;
78074;Laerm;67283;50.960;13.856;2023-09-19T13:55:19;60.32;33.23;75.91;;
78074;Laerm;67283;50.960;13.856;2023-09-19T13:57:50;59.76;33.82;70.95;;
78074;Laerm;67283;50.960;13.856;2023-09-19T14:00:17;58.91;33.72;70.62;;
78074;Laerm;67283;50.960;13.856;2023-09-19T14:02:43;59.89;34.53;70.59;;
78074;Laerm;67283;50.960;13.856;2023-09-19T14:05:11;62.34;35.01;72.58;;
78074;Laerm;67283;50.960;13.856;2023-09-19T14:07:43;63.10;37.70;72.11;;
78074;Laerm;67283;50.960;13.856;2023-09-19T14:10:09;59.35;33.42;71.13;;
78074;Laerm;67283;50.960;13.856;2023-09-19T14:12:38;59.79;31.89;70.57;;
78074;Laerm;67283;50.960;13.856;2023-09-19T14:15:06;63.06;34.87;74.68;;
78074;Laerm;67283;50.960;13.856;2023-09-19T14:17:32;63.18;34.44;76.97;;